Hagerstown Regional Richard A Henson Field Hagerstown US
ICAO: KHGR
IATA: HGR
Category: Medium
Scheduled Services: No

Elevation: 703 ft
TransAlt. 18000 ft.

Airport Communications:
ASOS:126.375
WASHINGTON CNTR:134.15
CTAF:120.3
GND:121.9
AR OPS:32.3
LEESBURG RDO:109.8
TWR:120.3
UNICOM:122.95

KHGR Zoom In..

If you have problems with the map follow the link
https://www.worldairports.se/pages/airport.php?
ICAO=KHGR

Runways:

(A) RW 02 length 3165 ft width 100 ft
---- / hdg 26

(B) RW 09 length 7000 ft width 150 ft
ILS 111.90 / hdg 92

(C) RW 20 length 3165 ft width 100 ft
---- / hdg 206

(D) RW 27 length 7000 ft width 150 ft
ILS 111.90 / hdg 272

Location; KHGR
Day. 17 / Time. 01.53 Zulu
* Altimeter: 30.00
* Temperature: 04° c. 39.2°f.
* Wind from: 260° Speed 08 kn.
Dewpoint: -01° c.
Visibility: 10 Statute Miles.
Clouds: Broken 3100 ft.
Clouds: Overcast 3900 ft.

KHGR 170153Z 26008KT 10SM BKN031 OVC039 04/M01 A3000 RMK AO2 SLP175 T00441011


Wind From 260°
Speed 08 kn.

 
 
jpsmedia.com for Web Design worldairports.se 2018   terms of use